Time;durP1;ratioP1;P1;durP2;ratioP2;P2;SDS_P1;SDS_P2;PMS_P1;PMS_P2;Temp;Humidity;BMP_temperature;BMP_pressure;BME280_temperature;BME280_humidity;BME280_pressure;Samples;Min_cycle;Max_cycle;Signal;HPM_P1;HPM_P2
2023/01/19 12:07:41;;;;;;;7.35;3.17;;;;;;;;;;5075404;28;20177;-59
2023/01/19 12:10:34;;;;;;;5.55;2.72;;;;;;;;;;5076737;28;20491;-59
2023/01/19 12:13:01;;;;;;;6.50;3.33;;;;;;;;;;5068116;28;20037;-59
2023/01/19 12:15:41;;;;;;;4.53;2.38;;;;;;;;;;5082348;28;20033;-58
2023/01/19 12:18:12;;;;;;;4.78;3.08;;;;;;;;;;5079001;28;20120;-59
2023/01/19 12:20:40;;;;;;;4.97;3.05;;;;;;;;;;5072413;28;20041;-59
2023/01/19 12:23:09;;;;;;;6.10;3.20;;;;;;;;;;5084467;28;20383;-59
2023/01/19 12:26:01;;;;;;;5.10;2.85;;;;;;;;;;5074251;28;20036;-59
2023/01/19 12:28:32;;;;;;;4.40;2.22;;;;;;;;;;5072645;28;20047;-59
2023/01/19 12:30:59;;;;;;;6.82;3.05;;;;;;;;;;5083810;28;20028;-59
2023/01/19 12:33:34;;;;;;;4.97;2.70;;;;;;;;;;5071226;28;20027;-59
2023/01/19 12:36:01;;;;;;;;;;;;;;;;;;5066649;28;20033;-58
2023/01/19 12:38:33;;;;;;;4.70;2.70;;;;;;;;;;5066337;28;19917;-59
2023/01/19 12:41:19;;;;;;;5.10;2.83;;;;;;;;;;5064219;28;20491;-57
2023/01/19 12:43:45;;;;;;;4.57;2.70;;;;;;;;;;5064689;28;20037;-57
2023/01/19 12:46:44;;;;;;;4.40;2.97;;;;;;;;;;5066110;28;20388;-58
2023/01/19 12:49:17;;;;;;;4.82;2.97;;;;;;;;;;5052536;28;20037;-58
2023/01/19 12:51:43;;;;;;;4.78;2.97;;;;;;;;;;5067457;28;20024;-60
2023/01/19 12:54:18;;;;;;;6.03;2.47;;;;;;;;;;5066554;28;20033;-59
2023/01/19 12:56:44;;;;;;;4.57;2.72;;;;;;;;;;5067533;28;20039;-59
2023/01/19 12:59:23;;;;;;;3.53;2.45;;;;;;;;;;5067501;28;20033;-59
2023/01/19 13:02:11;;;;;;;5.53;2.75;;;;;;;;;;5067270;28;20029;-59
2023/01/19 13:04:37;;;;;;;4.20;2.53;;;;;;;;;;5067821;28;20495;-60
2023/01/19 13:07:09;;;;;;;3.88;2.50;;;;;;;;;;5081946;28;20494;-59
2023/01/19 13:09:36;;;;;;;4.28;2.85;;;;;;;;;;5087285;28;20476;-59
2023/01/19 13:12:14;;;;;;;7.05;3.15;;;;;;;;;;5085776;28;20028;-60
2023/01/19 13:14:43;;;;;;;4.55;2.85;;;;;;;;;;5085858;28;20114;-59
2023/01/19 13:17:32;;;;;;;3.65;2.88;;;;;;;;;;5080105;28;20523;-57
2023/01/19 13:20:18;;;;;;;3.80;2.47;;;;;;;;;;5059242;28;20471;-59
2023/01/19 13:22:48;;;;;;;6.75;2.63;;;;;;;;;;5055079;28;20029;-60
2023/01/19 13:25:23;;;;;;;4.60;2.78;;;;;;;;;;5072528;28;20032;-59
2023/01/19 13:27:49;;;;;;;4.50;2.90;;;;;;;;;;5071841;28;20373;-59
2023/01/19 13:30:17;;;;;;;4.25;2.83;;;;;;;;;;5054156;28;20016;-59
2023/01/19 13:32:43;;;;;;;6.05;2.90;;;;;;;;;;5073282;28;20099;-59
2023/01/19 13:35:18;;;;;;;4.18;2.65;;;;;;;;;;5073466;28;20063;-59
2023/01/19 13:37:44;;;;;;;4.68;2.40;;;;;;;;;;5072985;28;20020;-59
2023/01/19 13:40:20;;;;;;;4.82;2.53;;;;;;;;;;5073137;28;20029;-60
2023/01/19 13:42:46;;;;;;;5.68;2.50;;;;;;;;;;5073072;28;20024;-59
2023/01/19 13:45:32;;;;;;;5.97;2.55;;;;;;;;;;5073073;28;20033;-59
2023/01/19 13:47:59;;;;;;;3.53;2.50;;;;;;;;;;5072477;28;20050;-59
2023/01/19 13:50:27;;;;;;;4.15;2.70;;;;;;;;;;5072067;28;20473;-59
2023/01/19 13:52:54;;;;;;;4.05;2.63;;;;;;;;;;5072538;28;20028;-60
2023/01/19 13:55:20;;;;;;;3.90;2.88;;;;;;;;;;5073007;28;20108;-58
2023/01/19 13:57:47;;;;;;;3.75;2.88;;;;;;;;;;5072508;28;20024;-58
2023/01/19 14:00:22;;;;;;;3.60;2.67;;;;;;;;;;5072787;28;20110;-60
2023/01/19 14:02:58;;;;;;;4.53;2.88;;;;;;;;;;5072673;28;20036;-59
2023/01/19 14:05:26;;;;;;;4.78;2.70;;;;;;;;;;5072578;28;20033;-59
2023/01/19 14:08:19;;;;;;;4.93;3.08;;;;;;;;;;5072532;28;20494;-59
2023/01/19 14:10:45;;;;;;;5.10;3.00;;;;;;;;;;5068969;28;20040;-59
2023/01/19 14:13:15;;;;;;;4.18;2.60;;;;;;;;;;5072022;28;20025;-60
2023/01/19 14:15:42;;;;;;;4.95;2.58;;;;;;;;;;5072682;28;20025;-60
2023/01/19 14:18:08;;;;;;;4.18;2.83;;;;;;;;;;5072591;28;20030;-59
2023/01/19 14:20:35;;;;;;;4.03;2.40;;;;;;;;;;5072526;28;20488;-59
2023/01/19 14:23:02;;;;;;;6.43;3.10;;;;;;;;;;5071824;28;20036;-58
2023/01/19 14:25:32;;;;;;;5.15;3.13;;;;;;;;;;5072466;28;20524;-58
2023/01/19 14:28:17;;;;;;;4.47;2.88;;;;;;;;;;5070721;28;20111;-59
2023/01/19 14:30:53;;;;;;;4.70;2.92;;;;;;;;;;5069556;28;20020;-59
2023/01/19 14:33:32;;;;;;;6.65;3.83;;;;;;;;;;5070852;28;20111;-59
2023/01/19 14:36:07;;;;;;;4.63;2.65;;;;;;;;;;5070592;28;20025;-59
2023/01/19 14:38:34;;;;;;;4.75;3.00;;;;;;;;;;5071640;28;20536;-59
2023/01/19 14:41:00;;;;;;;4.20;2.83;;;;;;;;;;5070752;28;20409;-57
2023/01/19 14:43:28;;;;;;;4.72;3.10;;;;;;;;;;5070914;28;20392;-59
2023/01/19 14:45:56;;;;;;;4.03;2.72;;;;;;;;;;5071480;28;20033;-59
2023/01/19 14:48:22;;;;;;;4.60;2.30;;;;;;;;;;5070329;28;20404;-59
2023/01/19 14:50:52;;;;;;;5.10;3.22;;;;;;;;;;5070539;28;20032;-56
2023/01/19 14:53:23;;;;;;;3.42;2.65;;;;;;;;;;5071746;28;20035;-59
2023/01/19 14:55:49;;;;;;;4.68;3.08;;;;;;;;;;5071193;28;20032;-57
2023/01/19 14:58:19;;;;;;;5.03;2.78;;;;;;;;;;5070289;28;20037;-58
2023/01/19 15:00:46;;;;;;;3.75;2.60;;;;;;;;;;5071407;28;20130;-57
2023/01/19 15:03:12;;;;;;;5.30;3.22;;;;;;;;;;5069701;28;20039;-56
2023/01/19 15:05:42;;;;;;;5.40;3.25;;;;;;;;;;5071184;28;20127;-57
2023/01/19 15:08:11;;;;;;;4.22;2.80;;;;;;;;;;5070281;28;20036;-59
2023/01/19 15:10:37;;;;;;;4.47;2.85;;;;;;;;;;5070513;28;20020;-59
2023/01/19 15:13:03;;;;;;;5.00;3.15;;;;;;;;;;5052535;28;20085;-60
2023/01/19 15:15:33;;;;;;;5.60;3.10;;;;;;;;;;5071323;28;20025;-57
2023/01/19 15:18:01;;;;;;;4.57;3.03;;;;;;;;;;5069625;28;20375;-57
2023/01/19 15:20:27;;;;;;;4.45;3.28;;;;;;;;;;5069614;28;20119;-59
2023/01/19 15:22:53;;;;;;;4.93;3.17;;;;;;;;;;5069494;28;20025;-59
2023/01/19 15:25:21;;;;;;;5.03;3.30;;;;;;;;;;5069327;28;20028;-58
2023/01/19 15:27:47;;;;;;;5.18;3.90;;;;;;;;;;5070101;28;20445;-60
2023/01/19 15:30:19;;;;;;;4.05;2.83;;;;;;;;;;5070385;28;20103;-58
2023/01/19 15:32:45;;;;;;;4.85;3.45;;;;;;;;;;5070352;28;20503;-59
2023/01/19 15:35:20;;;;;;;4.70;2.83;;;;;;;;;;5071277;28;20481;-58
2023/01/19 15:37:47;;;;;;;4.43;3.00;;;;;;;;;;5069663;28;20029;-59
2023/01/19 15:40:14;;;;;;;4.22;3.05;;;;;;;;;;5070808;28;20040;-59
2023/01/19 15:42:40;;;;;;;4.85;3.50;;;;;;;;;;5070201;28;20028;-59
2023/01/19 15:45:29;;;;;;;5.70;3.63;;;;;;;;;;5071276;28;20032;-59
2023/01/19 15:47:55;;;;;;;4.80;3.75;;;;;;;;;;5060002;28;20059;-58
2023/01/19 15:50:21;;;;;;;4.10;3.13;;;;;;;;;;5069061;28;20024;-58
2023/01/19 15:52:47;;;;;;;7.57;3.47;;;;;;;;;;5070477;28;20074;-59
2023/01/19 15:55:14;;;;;;;6.30;3.63;;;;;;;;;;5070842;28;20016;-58
2023/01/19 15:57:40;;;;;;;6.65;3.00;;;;;;;;;;5070818;28;20025;-59
2023/01/19 16:00:07;;;;;;;6.03;3.67;;;;;;;;;;5071139;28;20031;-59
2023/01/19 16:02:33;;;;;;;5.47;3.70;;;;;;;;;;5070962;28;20025;-59
2023/01/19 16:04:59;;;;;;;7.05;4.00;;;;;;;;;;5069661;28;20017;-59
2023/01/19 16:07:25;;;;;;;4.40;2.92;;;;;;;;;;5070529;28;20052;-59
2023/01/19 16:09:51;;;;;;;6.45;3.53;;;;;;;;;;5070638;28;20074;-58
2023/01/19 16:12:17;;;;;;;6.03;3.30;;;;;;;;;;5070748;28;20071;-59
2023/01/19 16:14:44;;;;;;;4.97;3.85;;;;;;;;;;5070654;28;20043;-60
2023/01/19 16:17:10;;;;;;;4.57;3.53;;;;;;;;;;5070887;28;20112;-58
2023/01/19 16:19:36;;;;;;;4.47;3.40;;;;;;;;;;5070821;28;20024;-59
2023/01/19 16:22:04;;;;;;;5.28;3.60;;;;;;;;;;5070552;28;20116;-59
2023/01/19 16:24:30;;;;;;;5.88;3.60;;;;;;;;;;5070686;28;20400;-59
2023/01/19 16:26:56;;;;;;;5.80;3.88;;;;;;;;;;5070496;28;20044;-59
2023/01/19 16:29:22;;;;;;;4.28;3.22;;;;;;;;;;5070790;28;20056;-58
2023/01/19 16:31:48;;;;;;;5.40;3.83;;;;;;;;;;5070504;28;20431;-57
2023/01/19 16:34:14;;;;;;;6.65;4.00;;;;;;;;;;5070705;28;20024;-59
2023/01/19 16:36:41;;;;;;;5.07;3.42;;;;;;;;;;5070823;28;20107;-58
2023/01/19 16:39:11;;;;;;;4.93;4.03;;;;;;;;;;5070876;28;20021;-59
2023/01/19 16:41:37;;;;;;;6.40;3.97;;;;;;;;;;5070996;28;20028;-59
2023/01/19 16:44:04;;;;;;;4.85;3.20;;;;;;;;;;5070339;28;20095;-59
2023/01/19 16:46:33;;;;;;;5.40;3.67;;;;;;;;;;5070469;28;20048;-59
2023/01/19 16:49:00;;;;;;;5.30;3.53;;;;;;;;;;5070138;28;20503;-60
2023/01/19 16:51:26;;;;;;;6.00;3.63;;;;;;;;;;5052390;28;20043;-58
2023/01/19 16:53:52;;;;;;;4.88;3.28;;;;;;;;;;5073059;28;20021;-59
2023/01/19 16:56:18;;;;;;;4.78;3.35;;;;;;;;;;5074090;28;20031;-59
2023/01/19 16:58:44;;;;;;;5.53;4.03;;;;;;;;;;5073939;28;20032;-59
2023/01/19 17:01:13;;;;;;;6.80;3.30;;;;;;;;;;5074137;28;20048;-57
2023/01/19 17:03:40;;;;;;;4.82;3.65;;;;;;;;;;5073832;28;20052;-59
2023/01/19 17:06:06;;;;;;;5.38;3.70;;;;;;;;;;5072983;28;20392;-60
2023/01/19 17:08:33;;;;;;;4.68;3.35;;;;;;;;;;5072774;28;20028;-60
2023/01/19 17:11:01;;;;;;;5.03;3.40;;;;;;;;;;5053579;28;20103;-59
2023/01/19 17:13:28;;;;;;;5.20;3.42;;;;;;;;;;5071275;28;21542;-59
2023/01/19 17:15:58;;;;;;;4.68;3.00;;;;;;;;;;5070966;28;20391;-57
2023/01/19 17:18:24;;;;;;;5.97;3.25;;;;;;;;;;5091401;28;20028;-57
2023/01/19 17:20:50;;;;;;;5.32;3.10;;;;;;;;;;5091776;28;20028;-56
2023/01/19 17:23:15;;;;;;;5.85;3.90;;;;;;;;;;5093446;28;20059;-57
2023/01/19 17:25:41;;;;;;;4.93;3.13;;;;;;;;;;5076214;28;20040;-56
2023/01/19 17:28:07;;;;;;;4.72;3.05;;;;;;;;;;5071805;28;20136;-57
2023/01/19 17:30:33;;;;;;;7.57;3.80;;;;;;;;;;5073120;28;20025;-59
2023/01/19 17:32:59;;;;;;;5.40;3.63;;;;;;;;;;5072051;28;20108;-58
2023/01/19 17:35:26;;;;;;;8.82;3.78;;;;;;;;;;5073176;28;20040;-58
2023/01/19 17:37:53;;;;;;;8.15;4.25;;;;;;;;;;5073190;28;20028;-59
2023/01/19 17:40:19;;;;;;;9.82;3.55;;;;;;;;;;5073514;28;20163;-59
2023/01/19 17:42:45;;;;;;;6.03;3.30;;;;;;;;;;5073164;28;20021;-57
2023/01/19 17:45:11;;;;;;;11.77;3.50;;;;;;;;;;5073264;28;20024;-57
2023/01/19 17:47:38;;;;;;;6.72;3.40;;;;;;;;;;5073344;28;20047;-58
2023/01/19 17:50:04;;;;;;;7.30;3.65;;;;;;;;;;5071829;28;20031;-59
2023/01/19 17:52:30;;;;;;;4.90;2.97;;;;;;;;;;5073110;28;20094;-58
2023/01/19 17:54:56;;;;;;;7.88;3.47;;;;;;;;;;5072981;28;20024;-59
2023/01/19 17:57:22;;;;;;;5.45;3.25;;;;;;;;;;5073010;28;20104;-58
2023/01/19 17:59:48;;;;;;;5.75;3.63;;;;;;;;;;5072851;28;20552;-59
2023/01/19 18:02:14;;;;;;;5.32;3.67;;;;;;;;;;5072959;28;20024;-59
2023/01/19 18:04:40;;;;;;;7.78;3.50;;;;;;;;;;5072767;28;20112;-57
2023/01/19 18:07:06;;;;;;;8.20;3.40;;;;;;;;;;5073003;28;20123;-60
2023/01/19 18:09:32;;;;;;;4.72;3.15;;;;;;;;;;5072872;28;20052;-61
2023/01/19 18:11:58;;;;;;;8.57;3.47;;;;;;;;;;5072636;28;20142;-62
2023/01/19 18:14:24;;;;;;;5.65;3.20;;;;;;;;;;5072900;28;20025;-60
2023/01/19 18:16:50;;;;;;;7.45;3.65;;;;;;;;;;5072543;28;20028;-60
2023/01/19 18:19:16;;;;;;;6.78;3.25;;;;;;;;;;5072692;28;20078;-61
2023/01/19 18:21:42;;;;;;;5.80;3.05;;;;;;;;;;5072297;28;20496;-60
2023/01/19 18:24:08;;;;;;;5.78;3.20;;;;;;;;;;5072784;28;20035;-61
2023/01/19 18:26:34;;;;;;;5.35;3.50;;;;;;;;;;5072702;28;20563;-62
2023/01/19 18:29:00;;;;;;;4.25;2.97;;;;;;;;;;5072289;28;20031;-59
2023/01/19 18:31:26;;;;;;;6.35;3.17;;;;;;;;;;5072380;28;20108;-60
2023/01/19 18:33:53;;;;;;;9.10;3.15;;;;;;;;;;5071117;28;20031;-61
2023/01/19 18:36:19;;;;;;;6.60;3.50;;;;;;;;;;5070862;28;20112;-59
2023/01/19 18:38:45;;;;;;;7.80;3.28;;;;;;;;;;5070686;28;20017;-59
2023/01/19 18:41:15;;;;;;;9.05;3.47;;;;;;;;;;5070838;28;20492;-59
2023/01/19 18:43:42;;;;;;;4.97;3.33;;;;;;;;;;5072010;28;20029;-60
2023/01/19 18:46:08;;;;;;;7.68;3.58;;;;;;;;;;5072327;28;20535;-59
2023/01/19 18:48:34;;;;;;;5.97;3.35;;;;;;;;;;5072240;28;20112;-59
2023/01/19 18:51:04;;;;;;;9.15;3.65;;;;;;;;;;5070252;28;20032;-59
2023/01/19 18:53:31;;;;;;;7.32;3.60;;;;;;;;;;5070060;28;20099;-59
2023/01/19 18:55:58;;;;;;;9.52;3.35;;;;;;;;;;5070523;28;20028;-59
2023/01/19 18:58:27;;;;;;;5.20;2.97;;;;;;;;;;5071956;28;20373;-60
2023/01/19 19:00:53;;;;;;;6.05;3.13;;;;;;;;;;5071190;28;20397;-62
2023/01/19 19:03:19;;;;;;;8.90;3.38;;;;;;;;;;5070259;28;20048;-60
2023/01/19 19:05:45;;;;;;;6.20;3.40;;;;;;;;;;5071379;28;20078;-60
2023/01/19 19:08:11;;;;;;;8.80;3.33;;;;;;;;;;5071854;28;20078;-59
2023/01/19 19:10:39;;;;;;;7.43;3.33;;;;;;;;;;5072028;28;20404;-60
2023/01/19 19:13:05;;;;;;;6.93;3.15;;;;;;;;;;5071847;28;20078;-62
2023/01/19 19:15:32;;;;;;;7.10;3.00;;;;;;;;;;5071126;28;20025;-61
2023/01/19 19:17:58;;;;;;;9.35;3.55;;;;;;;;;;5070768;28;20066;-61
2023/01/19 19:20:24;;;;;;;6.60;3.45;;;;;;;;;;5071610;28;20532;-61
2023/01/19 19:22:50;;;;;;;9.60;3.20;;;;;;;;;;5071264;28;20111;-60
2023/01/19 19:25:16;;;;;;;6.57;3.38;;;;;;;;;;5071410;28;20449;-63
2023/01/19 19:27:44;;;;;;;6.00;3.40;;;;;;;;;;5071106;28;20481;-62
2023/01/19 19:30:12;;;;;;;8.88;3.40;;;;;;;;;;5071621;28;20032;-60
2023/01/19 19:32:38;;;;;;;6.28;2.80;;;;;;;;;;5071716;28;20054;-62
2023/01/19 19:35:04;;;;;;;6.88;3.88;;;;;;;;;;5070913;28;20025;-64
2023/01/19 19:37:30;;;;;;;7.30;3.85;;;;;;;;;;5073204;28;20028;-61
2023/01/19 19:39:56;;;;;;;5.90;3.38;;;;;;;;;;5087092;28;20027;-66
2023/01/19 19:42:23;;;;;;;7.05;3.33;;;;;;;;;;5076457;28;20034;-59
2023/01/19 19:44:51;;;;;;;9.13;3.38;;;;;;;;;;5080494;28;20021;-59
2023/01/19 19:47:17;;;;;;;7.75;3.75;;;;;;;;;;5084564;28;20036;-63
2023/01/19 19:49:43;;;;;;;5.10;3.45;;;;;;;;;;5073743;28;20036;-63
2023/01/19 19:52:09;;;;;;;5.97;3.20;;;;;;;;;;5086568;28;20095;-63
2023/01/19 19:54:36;;;;;;;7.97;4.10;;;;;;;;;;5079077;28;20503;-63
2023/01/19 19:57:01;;;;;;;9.00;3.58;;;;;;;;;;5078490;28;20024;-62
2023/01/19 19:59:27;;;;;;;5.60;3.80;;;;;;;;;;5074673;28;20032;-63
2023/01/19 20:01:53;;;;;;;5.85;3.40;;;;;;;;;;5086048;28;20023;-63
2023/01/19 20:04:21;;;;;;;6.38;4.00;;;;;;;;;;5075007;28;20391;-63
2023/01/19 20:06:47;;;;;;;8.07;3.92;;;;;;;;;;5079975;28;20042;-63
2023/01/19 20:09:14;;;;;;;5.50;3.78;;;;;;;;;;5083962;28;20024;-63
2023/01/19 20:11:41;;;;;;;7.03;3.80;;;;;;;;;;5073381;28;20029;-60
2023/01/19 20:14:08;;;;;;;5.50;3.80;;;;;;;;;;5086428;28;20021;-62
2023/01/19 20:16:34;;;;;;;12.05;4.78;;;;;;;;;;5078304;28;20032;-63
2023/01/19 20:19:00;;;;;;;7.53;5.03;;;;;;;;;;5089889;28;20482;-61
2023/01/19 20:21:27;;;;;;;9.23;4.82;;;;;;;;;;5070796;28;20090;-63
2023/01/19 20:23:54;;;;;;;8.13;4.43;;;;;;;;;;5069750;28;20019;-60
2023/01/19 20:26:23;;;;;;;9.88;4.03;;;;;;;;;;5071036;28;20024;-60
2023/01/19 20:28:50;;;;;;;7.75;4.68;;;;;;;;;;5080432;28;20060;-63
2023/01/19 20:31:27;;;;;;;8.35;4.93;;;;;;;;;;5083950;28;20075;-63
2023/01/19 20:33:54;;;;;;;7.28;4.50;;;;;;;;;;5075088;28;20062;-62
2023/01/19 20:36:23;;;;;;;9.23;5.18;;;;;;;;;;5094609;28;20096;-63
2023/01/19 20:38:49;;;;;;;9.10;4.97;;;;;;;;;;5094822;28;20380;-62
2023/01/19 20:41:15;;;;;;;7.90;5.45;;;;;;;;;;5094920;28;20074;-62
2023/01/19 20:43:41;;;;;;;11.23;5.25;;;;;;;;;;5094534;28;20514;-60
2023/01/19 20:46:07;;;;;;;10.77;5.72;;;;;;;;;;5095123;28;20040;-64
2023/01/19 20:48:33;;;;;;;10.60;5.00;;;;;;;;;;5094740;28;20016;-63
2023/01/19 20:51:04;;;;;;;11.15;6.03;;;;;;;;;;5094422;28;20028;-62
2023/01/19 20:53:30;;;;;;;9.95;5.10;;;;;;;;;;5094553;28;20020;-63
2023/01/19 20:55:56;;;;;;;9.98;5.72;;;;;;;;;;5094265;28;20028;-61
2023/01/19 20:58:22;;;;;;;10.60;5.32;;;;;;;;;;5094259;28;20497;-61
2023/01/19 21:00:48;;;;;;;9.27;5.25;;;;;;;;;;5094187;28;20031;-61
2023/01/19 21:03:14;;;;;;;9.40;5.68;;;;;;;;;;5094277;28;20507;-60
2023/01/19 21:05:40;;;;;;;13.93;5.35;;;;;;;;;;5093824;28;20036;-57
2023/01/19 21:08:07;;;;;;;10.90;5.53;;;;;;;;;;5094420;28;20028;-58
2023/01/19 21:10:34;;;;;;;10.05;5.10;;;;;;;;;;5094352;28;20032;-60
2023/01/19 21:13:00;;;;;;;8.38;4.93;;;;;;;;;;5093917;28;20036;-60
2023/01/19 21:15:26;;;;;;;11.15;5.55;;;;;;;;;;5094047;28;20050;-66
2023/01/19 21:17:52;;;;;;;10.85;4.80;;;;;;;;;;5093838;28;20052;-70
2023/01/19 21:20:18;;;;;;;9.30;5.13;;;;;;;;;;5093980;28;20391;-69
2023/01/19 21:22:44;;;;;;;8.07;5.13;;;;;;;;;;5093802;28;20035;-66
2023/01/19 21:25:10;;;;;;;9.77;5.57;;;;;;;;;;5093873;28;20423;-61
2023/01/19 21:27:36;;;;;;;11.88;5.53;;;;;;;;;;5088029;28;20064;-65
2023/01/19 21:30:03;;;;;;;9.90;5.53;;;;;;;;;;5073303;28;20151;-64
2023/01/19 21:32:29;;;;;;;11.05;5.82;;;;;;;;;;5073477;28;20388;-66
2023/01/19 21:34:55;;;;;;;12.27;5.65;;;;;;;;;;5073273;28;20492;-67
2023/01/19 21:37:21;;;;;;;9.63;4.47;;;;;;;;;;5073623;28;20020;-66
2023/01/19 21:39:47;;;;;;;10.20;6.18;;;;;;;;;;5072798;28;20083;-66
2023/01/19 21:42:13;;;;;;;6.88;4.60;;;;;;;;;;5073551;28;20069;-63
2023/01/19 21:44:39;;;;;;;8.27;5.07;;;;;;;;;;5073911;28;20028;-60
2023/01/19 21:47:07;;;;;;;8.77;5.28;;;;;;;;;;5073190;28;20040;-66
2023/01/19 21:49:34;;;;;;;10.75;5.88;;;;;;;;;;5073346;28;20024;-64
2023/01/19 21:52:00;;;;;;;8.50;5.60;;;;;;;;;;5073141;28;20024;-64
2023/01/19 21:54:26;;;;;;;7.88;5.45;;;;;;;;;;5073371;28;20085;-65
2023/01/19 21:56:52;;;;;;;8.23;5.15;;;;;;;;;;5073076;28;20025;-65
2023/01/19 21:59:18;;;;;;;7.30;5.20;;;;;;;;;;5055334;28;20055;-67
2023/01/19 22:01:44;;;;;;;8.23;4.57;;;;;;;;;;5072994;28;20029;-61
2023/01/19 22:04:11;;;;;;;9.70;5.35;;;;;;;;;;5072879;28;20052;-60
2023/01/19 22:06:37;;;;;;;9.55;5.18;;;;;;;;;;5072746;28;20066;-61
2023/01/19 22:09:03;;;;;;;8.95;5.20;;;;;;;;;;5072821;28;20468;-60
2023/01/19 22:11:29;;;;;;;8.00;5.00;;;;;;;;;;5072849;28;20033;-61
2023/01/19 22:13:58;;;;;;;9.35;5.30;;;;;;;;;;5072495;28;20041;-61
2023/01/19 22:16:24;;;;;;;8.07;5.05;;;;;;;;;;5072357;28;20100;-62
2023/01/19 22:19:11;;;;;;;12.25;5.18;;;;;;;;;;5070470;28;20556;-61
2023/01/19 22:21:37;;;;;;;7.35;4.80;;;;;;;;;;5070950;28;20071;-64
2023/01/19 22:24:04;;;;;;;9.02;5.20;;;;;;;;;;5071176;28;20032;-64
2023/01/19 22:26:32;;;;;;;8.93;5.40;;;;;;;;;;5071167;28;20036;-61
2023/01/19 22:28:59;;;;;;;8.38;5.07;;;;;;;;;;5070724;28;20032;-65
2023/01/19 22:31:26;;;;;;;8.07;5.25;;;;;;;;;;5070997;28;20027;-63
2023/01/19 22:33:52;;;;;;;7.72;5.65;;;;;;;;;;5071605;28;20103;-64
2023/01/19 22:36:22;;;;;;;9.05;5.70;;;;;;;;;;5070443;28;20082;-63
2023/01/19 22:38:52;;;;;;;9.00;5.43;;;;;;;;;;5070181;28;20036;-63
2023/01/19 22:41:20;;;;;;;8.18;4.68;;;;;;;;;;5070297;28;20032;-64
2023/01/19 22:43:46;;;;;;;7.68;4.90;;;;;;;;;;5069969;28;20454;-62
2023/01/19 22:46:12;;;;;;;7.72;5.97;;;;;;;;;;5070148;28;20552;-64
2023/01/19 22:48:39;;;;;;;9.88;5.70;;;;;;;;;;5070383;28;20033;-63
2023/01/19 22:51:05;;;;;;;7.80;5.25;;;;;;;;;;5071719;28;20025;-63
2023/01/19 22:53:31;;;;;;;8.60;5.45;;;;;;;;;;5072139;28;20412;-63
2023/01/19 22:55:57;;;;;;;8.80;5.05;;;;;;;;;;5071765;28;20029;-63
2023/01/19 22:58:23;;;;;;;8.57;5.40;;;;;;;;;;5071979;28;20025;-63
2023/01/19 23:00:49;;;;;;;6.65;5.07;;;;;;;;;;5071741;28;20029;-63
2023/01/19 23:03:15;;;;;;;8.52;4.78;;;;;;;;;;5071758;28;20028;-63
2023/01/19 23:05:41;;;;;;;7.05;5.63;;;;;;;;;;5071325;28;20032;-62
2023/01/19 23:08:07;;;;;;;9.65;5.35;;;;;;;;;;5072116;28;20028;-62
2023/01/19 23:10:33;;;;;;;8.15;4.57;;;;;;;;;;5071955;28;20046;-63
2023/01/19 23:12:59;;;;;;;7.65;5.30;;;;;;;;;;5071347;28;20024;-62
2023/01/19 23:15:25;;;;;;;7.65;4.43;;;;;;;;;;5071593;28;20039;-63
2023/01/19 23:17:52;;;;;;;8.48;5.35;;;;;;;;;;5071319;28;20029;-63
2023/01/19 23:20:19;;;;;;;6.97;5.45;;;;;;;;;;5071553;28;20035;-62
2023/01/19 23:22:45;;;;;;;8.07;5.25;;;;;;;;;;5071158;28;20025;-61
2023/01/19 23:25:11;;;;;;;8.60;5.32;;;;;;;;;;5071273;28;20028;-61
2023/01/19 23:27:37;;;;;;;7.18;5.38;;;;;;;;;;5071652;28;20036;-61
2023/01/19 23:30:03;;;;;;;7.80;5.22;;;;;;;;;;5070940;28;20465;-61
2023/01/19 23:32:29;;;;;;;8.75;5.20;;;;;;;;;;5071282;28;20025;-62
2023/01/19 23:34:55;;;;;;;7.80;5.47;;;;;;;;;;5071153;28;20025;-61
2023/01/19 23:37:21;;;;;;;7.25;5.47;;;;;;;;;;5071184;28;20033;-61
2023/01/19 23:39:47;;;;;;;6.50;4.85;;;;;;;;;;5070935;28;20507;-61
2023/01/19 23:42:13;;;;;;;6.97;4.82;;;;;;;;;;5071154;28;20081;-60
2023/01/19 23:44:39;;;;;;;7.00;5.13;;;;;;;;;;5071257;28;20067;-60
2023/01/19 23:47:05;;;;;;;8.05;5.70;;;;;;;;;;5070923;28;20032;-59
2023/01/19 23:49:30;;;;;;;6.22;4.80;;;;;;;;;;5070950;28;20027;-60
2023/01/19 23:51:56;;;;;;;6.22;4.93;;;;;;;;;;5070713;28;20050;-61
2023/01/19 23:54:22;;;;;;;6.20;4.70;;;;;;;;;;5070772;28;20029;-60
2023/01/19 23:56:48;;;;;;;6.80;5.15;;;;;;;;;;5070707;28;20021;-59
2023/01/19 23:59:15;;;;;;;8.02;5.57;;;;;;;;;;5070892;28;20029;-60
